Time;durP1;ratioP1;P1;durP2;ratioP2;P2;SDS_P1;SDS_P2;PMS_P1;PMS_P2;Temp;Humidity;BMP_temperature;BMP_pressure;BME280_temperature;BME280_humidity;BME280_pressure;Samples;Min_cycle;Max_cycle;Signal;HPM_P1;HPM_P2
2021/01/15 04:30:29;;;;;;;6.07;5.53;;;;;;;3.81;50.64;98952.59;8388934;23;20191;31
2021/01/15 04:33:51;;;;;;;6.83;5.20;;;;;;;3.98;50.07;98968.53;6797379;29;20699;-80
2021/01/15 04:37:12;;;;;;;7.23;5.60;;;;;;;3.35;50.50;98918.34;6794727;29;20235;-79
2021/01/15 04:40:33;;;;;;;10.07;5.53;;;;;;;3.60;50.51;98984.97;6810290;29;20234;-79
2021/01/15 04:43:55;;;;;;;6.60;5.90;;;;;;;3.94;49.38;98993.00;6824244;29;20206;-79
2021/01/15 04:47:16;;;;;;;6.90;4.83;;;;;;;4.22;48.97;98986.47;6819200;29;20213;-80
2021/01/15 04:50:39;;;;;;;5.50;5.00;;;;;;;4.26;48.26;98961.97;6818516;29;20233;-79
2021/01/15 04:54:01;;;;;;;6.80;5.50;;;;;;;4.19;48.39;98989.47;6818669;29;20215;-79
2021/01/15 04:57:24;;;;;;;6.30;5.20;;;;;;;4.33;48.28;98984.34;6820407;29;20238;-79
2021/01/15 05:00:46;;;;;;;6.20;5.23;;;;;;;3.65;48.97;98965.88;6823267;29;20231;-79
2021/01/15 05:04:09;;;;;;;6.00;5.40;;;;;;;3.03;51.06;98998.88;6830221;29;20227;-79
2021/01/15 05:07:31;;;;;;;6.03;5.30;;;;;;;3.36;50.15;99005.31;6835090;29;20211;-80
2021/01/15 05:10:52;;;;;;;6.97;5.53;;;;;;;3.12;50.29;99011.25;6814501;29;20233;-80
2021/01/15 05:14:14;;;;;;;9.17;5.47;;;;;;;3.63;49.48;99008.66;6820393;29;20210;-81
2021/01/15 05:17:35;;;;;;;9.63;5.97;;;;;;;3.43;49.52;99009.03;6820861;29;20683;-80
2021/01/15 05:20:56;;;;;;;6.10;5.50;;;;;;;3.59;49.19;99014.47;6819913;29;20225;-80
2021/01/15 05:24:18;;;;;;;8.27;5.87;;;;;;;3.39;48.87;98983.66;6820840;29;20214;-79
2021/01/15 05:27:43;;;;;;;5.57;5.07;;;;;;;3.15;49.37;98986.16;6820448;29;20206;-80
2021/01/15 05:31:04;;;;;;;6.10;5.50;;;;;;;2.92;50.29;99004.44;6819249;29;20238;-80
2021/01/15 05:34:27;;;;;;;7.97;5.33;;;;;;;3.07;50.58;99036.69;6820346;29;20598;-80
2021/01/15 05:37:58;;;;;;;6.63;5.73;;;;;;;3.28;49.62;99046.03;6819732;29;20233;-80
2021/01/15 05:41:22;;;;;;;7.00;5.53;;;;;;;3.55;49.17;99045.91;6819514;28;20458;-80
2021/01/15 05:44:43;;;;;;;6.60;5.80;;;;;;;2.95;50.50;99051.22;6821480;29;20206;-80
2021/01/15 05:48:06;;;;;;;7.30;5.30;;;;;;;3.42;50.19;99064.13;6819681;29;20198;-80
2021/01/15 05:51:29;;;;;;;5.80;5.30;;;;;;;3.47;49.63;99039.69;6816918;29;20725;-84
2021/01/15 05:54:54;;;;;;;5.77;5.17;;;;;;;3.32;49.59;99049.22;6813704;29;20586;-80
2021/01/15 05:58:17;;;;;;;7.03;5.93;;;;;;;3.22;49.02;99078.63;6818591;29;20229;-80
2021/01/15 06:01:43;;;;;;;6.23;5.63;;;;;;;3.05;50.15;99081.28;6817383;29;20222;-79
2021/01/15 06:05:05;;;;;;;6.07;5.47;;;;;;;2.28;51.04;99088.88;6818854;29;20203;-80
2021/01/15 06:08:42;;;;;;;6.83;6.13;;;;;;;2.44;51.35;99099.72;6819531;29;20209;-81
2021/01/15 06:12:04;;;;;;;8.33;5.90;;;;;;;3.14;49.20;99094.50;6820159;29;20226;-80
2021/01/15 06:15:26;;;;;;;6.17;5.40;;;;;;;2.84;50.19;99096.72;6820363;29;20214;-81
2021/01/15 06:19:01;;;;;;;6.33;5.73;;;;;;;2.86;50.10;99081.41;6821006;29;20214;-80
2021/01/15 06:22:31;;;;;;;7.97;5.73;;;;;;;3.41;48.51;99110.44;6831309;29;20230;-80
2021/01/15 06:29:55;;;;;;;6.20;5.37;;;;;;;2.98;49.89;99117.50;6822090;29;20210;-79
2021/01/15 06:33:17;;;;;;;6.87;5.47;;;;;;;2.67;50.22;99137.44;6818286;29;20611;-80
2021/01/15 06:36:48;;;;;;;7.23;5.70;;;;;;;3.02;50.44;99129.53;6817613;29;20233;-79
2021/01/15 06:40:11;;;;;;;7.57;6.20;;;;;;;3.07;49.33;99089.97;6805605;29;20214;-80
2021/01/15 06:43:34;;;;;;;8.50;6.27;;;;;;;3.44;48.70;99138.63;6818853;29;20202;-81
2021/01/15 06:46:55;;;;;;;7.07;6.37;;;;;;;2.95;49.83;99131.13;6819107;29;20202;-81
2021/01/15 06:50:18;;;;;;;6.97;6.27;;;;;;;2.63;50.20;99133.38;6821590;29;20262;-80
2021/01/15 06:53:41;;;;;;;9.43;6.50;;;;;;;3.13;50.38;99155.97;6820878;29;20210;-80
2021/01/15 06:57:12;;;;;;;7.77;6.97;;;;;;;2.27;51.73;99131.56;6823042;29;20246;-80
2021/01/15 07:00:34;;;;;;;12.67;7.17;;;;;;;2.79;50.22;99142.41;6815757;29;20230;-80
2021/01/15 07:04:27;;;;;;;7.33;6.57;;;;;;;3.32;49.80;99164.63;6796511;29;20221;-81
2021/01/15 07:07:51;;;;;;;8.53;7.63;;;;;;;3.27;49.48;99169.59;6794597;29;20202;-81
2021/01/15 07:11:13;;;;;;;9.70;8.07;;;;;;;2.83;51.10;99159.75;6807871;29;20595;-82
2021/01/15 07:14:47;;;;;;;8.97;7.17;;;;;;;2.27;52.68;99184.78;6819573;29;20209;-81
2021/01/15 07:18:29;;;;;;;10.20;7.87;;;;;;;2.97;51.00;99182.41;6821704;29;20250;-81
2021/01/15 07:22:08;;;;;;;8.43;7.47;;;;;;;2.34;52.78;99194.69;6820537;29;20351;-82
2021/01/15 07:25:30;;;;;;;12.97;8.47;;;;;;;2.34;54.05;99176.09;6820867;29;20226;-81
2021/01/15 07:28:57;;;;;;;11.40;7.57;;;;;;;2.99;51.72;99167.94;6821026;28;20266;-81
2021/01/15 07:32:23;;;;;;;12.40;8.00;;;;;;;2.26;53.35;99204.38;6819923;28;20238;-81
2021/01/15 07:35:45;;;;;;;10.57;9.10;;;;;;;2.29;52.42;99105.66;6819579;29;20254;-81
2021/01/15 07:39:08;;;;;;;11.67;8.03;;;;;;;2.65;51.79;99198.78;6821537;29;20213;-81
2021/01/15 07:42:44;;;;;;;8.57;7.30;;;;;;;2.76;51.80;99182.63;6821794;29;20230;-81
2021/01/15 07:46:06;;;;;;;11.97;8.40;;;;;;;2.16;53.36;99207.06;6825031;29;20194;-82
2021/01/15 07:49:43;;;;;;;11.03;8.70;;;;;;;2.49;53.67;99214.53;6820656;29;20671;-80
2021/01/15 07:53:10;;;;;;;11.07;8.70;;;;;;;2.74;51.95;99192.59;6818994;29;20246;-86
2021/01/15 07:56:31;;;;;;;12.20;8.43;;;;;;;2.36;52.62;99171.44;6825718;28;20238;-82
2021/01/15 07:59:53;;;;;;;10.50;8.30;;;;;;;2.37;52.43;99177.63;6823798;29;20206;-81
2021/01/15 08:03:15;;;;;;;10.43;8.93;;;;;;;2.85;52.40;99226.19;6820021;29;20572;-82
2021/01/15 08:06:57;;;;;;;12.10;9.27;;;;;;;2.65;51.56;99229.91;6820183;29;20265;-81
2021/01/15 08:10:25;;;;;;;11.10;8.07;;;;;;;2.53;52.69;99215.94;6823863;29;20210;-88
2021/01/15 08:13:47;;;;;;;12.80;9.33;;;;;;;2.47;52.20;99223.63;6820024;29;20202;-80
2021/01/15 08:17:11;;;;;;;11.43;9.10;;;;;;;2.30;52.29;99213.75;6818578;29;20222;-80
2021/01/15 08:20:32;;;;;;;11.20;8.93;;;;;;;2.96;51.84;99257.94;6819967;29;20256;-81
2021/01/15 08:24:02;;;;;;;10.57;8.23;;;;;;;3.51;51.07;99241.81;6820184;29;20218;-81
2021/01/15 08:27:23;;;;;;;10.80;8.90;;;;;;;2.31;51.62;99224.25;6821132;29;20191;-81
2021/01/15 08:31:01;;;;;;;10.90;9.07;;;;;;;3.30;51.01;99275.88;6819876;29;20273;-81
2021/01/15 08:34:31;;;;;;;10.43;8.70;;;;;;;2.93;51.78;99264.41;6821019;29;20270;-81
2021/01/15 08:37:57;;;;;;;10.43;9.13;;;;;;;2.91;51.67;99287.69;6821359;29;20300;-81
2021/01/15 08:41:23;;;;;;;12.10;8.77;;;;;;;2.30;52.73;99290.91;6821402;29;20326;-80
2021/01/15 08:44:47;;;;;;;13.50;9.33;;;;;;;3.72;50.92;99294.84;6821431;29;20202;-82
2021/01/15 08:48:09;;;;;;;14.10;8.97;;;;;;;6.00;44.60;99284.31;6820376;29;20202;-85
2021/01/15 08:51:34;;;;;;;9.57;8.57;;;;;;;8.03;40.13;99291.59;6819317;29;20234;-86
2021/01/15 08:54:56;;;;;;;11.50;8.73;;;;;;;8.41;38.74;99299.56;6820143;29;20207;-83
2021/01/15 08:58:18;;;;;;;12.10;8.37;;;;;;;7.73;40.21;99301.28;6820655;29;20314;-82
2021/01/15 09:01:41;;;;;;;9.87;8.77;;;;;;;7.57;39.52;99297.84;6816832;29;20590;-85
2021/01/15 09:05:03;;;;;;;10.13;8.23;;;;;;;6.84;40.24;99296.41;6816946;29;20213;-83
2021/01/15 09:08:26;;;;;;;12.73;8.67;;;;;;;5.79;43.65;99283.91;6805359;29;20299;-83
2021/01/15 09:11:48;;;;;;;10.33;8.17;;;;;;;6.17;42.76;99315.44;6791803;29;20229;-81
2021/01/15 09:15:19;;;;;;;11.53;9.10;;;;;;;5.56;44.03;99298.88;6806141;29;20210;-80
2021/01/15 09:18:40;;;;;;;11.33;8.87;;;;;;;5.03;45.92;99333.03;6823138;29;20220;-82
2021/01/15 09:22:04;;;;;;;12.47;8.83;;;;;;;5.11;45.57;99341.94;6824279;29;20234;-82
2021/01/15 09:25:26;;;;;;;10.50;9.07;;;;;;;5.07;46.30;99347.75;6825646;29;20707;-83
2021/01/15 09:28:47;;;;;;;11.33;8.10;;;;;;;5.72;45.09;99342.56;6821351;29;20254;-82
2021/01/15 09:32:09;;;;;;;10.37;8.10;;;;;;;4.80;46.33;99265.09;6822739;29;20231;-82
2021/01/15 09:35:30;;;;;;;10.00;8.37;;;;;;;5.68;43.92;99343.06;6820236;29;20212;-81
2021/01/15 09:38:52;;;;;;;13.73;8.73;;;;;;;5.27;46.43;99354.56;6820079;29;20259;-80
2021/01/15 09:42:15;;;;;;;11.37;8.43;;;;;;;5.68;45.78;99354.59;6820401;29;20614;-82
2021/01/15 09:45:36;;;;;;;14.70;9.50;;;;;;;5.64;45.23;99355.06;6821445;29;20215;-81
2021/01/15 09:48:58;;;;;;;10.97;9.17;;;;;;;5.84;45.26;99369.91;6818999;29;20213;-81
2021/01/15 09:52:19;;;;;;;12.60;9.03;;;;;;;6.12;43.60;99361.47;6792849;29;20259;-81
2021/01/15 09:55:40;;;;;;;11.70;9.20;;;;;;;5.49;45.35;99370.88;6803785;29;20285;-81
2021/01/15 09:59:03;;;;;;;9.93;8.67;;;;;;;5.39;45.75;99353.28;6820497;29;20207;-81
2021/01/15 10:02:24;;;;;;;12.00;8.33;;;;;;;5.20;46.29;99374.91;6817941;29;20238;-80
2021/01/15 10:05:46;;;;;;;11.33;8.80;;;;;;;5.51;45.14;99322.59;6818242;29;20211;-80
2021/01/15 10:09:08;;;;;;;11.00;9.37;;;;;;;5.33;45.16;99365.47;6818294;29;20739;-79
2021/01/15 10:12:29;;;;;;;10.40;8.30;;;;;;;6.13;44.25;99368.50;6817959;29;20239;-79
2021/01/15 10:15:51;;;;;;;9.97;8.20;;;;;;;5.74;44.34;99378.03;6817767;29;20648;-79
2021/01/15 10:19:13;;;;;;;11.60;8.60;;;;;;;5.53;45.61;99379.41;6818156;28;20603;-79
2021/01/15 10:22:34;;;;;;;11.47;9.13;;;;;;;5.98;44.69;99363.94;6817902;29;20298;-80
2021/01/15 10:25:55;;;;;;;11.27;8.90;;;;;;;6.20;45.34;99379.41;6817876;29;20208;-81
2021/01/15 10:29:16;;;;;;;10.90;8.90;;;;;;;7.53;41.72;99371.66;6818460;29;20216;-81
2021/01/15 10:32:39;;;;;;;10.60;8.50;;;;;;;6.55;43.02;99326.38;6816348;29;20241;-80
2021/01/15 10:36:00;;;;;;;8.90;7.90;;;;;;;7.29;41.15;99385.13;6818103;29;20221;-80
2021/01/15 10:39:21;;;;;;;11.17;8.57;;;;;;;7.36;41.53;99378.91;6817555;29;20219;-80
2021/01/15 10:42:44;;;;;;;12.03;8.93;;;;;;;7.15;41.45;99383.97;6816407;29;20233;-79
2021/01/15 10:46:05;;;;;;;11.50;8.93;;;;;;;5.99;41.89;99165.72;6817356;29;20213;-81
2021/01/15 10:49:27;;;;;;;10.07;8.50;;;;;;;7.03;41.27;99366.56;6817153;29;20219;-78
2021/01/15 10:52:52;;;;;;;8.40;7.37;;;;;;;7.99;40.84;99365.44;6816663;29;20757;-80
2021/01/15 10:56:14;;;;;;;11.10;8.23;;;;;;;7.80;40.25;99374.75;6816672;29;20287;-80
2021/01/15 10:59:35;;;;;;;11.37;9.20;;;;;;;7.10;42.25;99377.44;6816491;29;20704;-79
2021/01/15 11:02:56;;;;;;;10.90;9.10;;;;;;;7.28;42.40;99380.75;6815939;29;20227;-80
2021/01/15 11:06:21;;;;;;;12.13;9.60;;;;;;;6.84;42.41;99388.34;6816751;29;20810;-80
2021/01/15 11:09:42;;;;;;;11.20;9.03;;;;;;;7.10;42.77;99372.06;6812816;29;20675;-82
2021/01/15 11:13:03;;;;;;;11.93;9.27;;;;;;;6.93;42.19;99359.69;6820640;29;20229;-81
2021/01/15 11:16:25;;;;;;;14.20;9.47;;;;;;;6.07;44.42;99403.94;6821930;29;20757;-83
2021/01/15 11:19:46;;;;;;;11.50;9.10;;;;;;;6.58;43.74;99393.03;6820163;29;20215;-83
2021/01/15 11:23:08;;;;;;;16.93;9.87;;;;;;;7.40;42.28;99368.66;6820158;29;20228;-84
2021/01/15 11:26:31;;;;;;;11.37;9.20;;;;;;;7.10;42.40;99359.53;6820157;29;20294;-84
2021/01/15 11:29:55;;;;;;;13.43;9.83;;;;;;;6.36;43.55;99374.91;6818449;29;20278;-83
2021/01/15 11:33:16;;;;;;;11.43;8.70;;;;;;;7.18;42.63;99391.69;6818847;29;20237;-84
2021/01/15 11:36:37;;;;;;;29.77;21.77;;;;;;;7.41;42.91;99379.22;6819108;29;20764;-84
2021/01/15 11:39:59;;;;;;;17.47;11.87;;;;;;;7.44;42.48;99357.44;6817420;29;20214;-83
2021/01/15 11:43:21;;;;;;;12.87;10.03;;;;;;;6.95;42.73;99369.25;6815471;29;20229;-84
2021/01/15 11:46:42;;;;;;;19.13;12.53;;;;;;;7.96;41.90;99374.66;6816967;29;20207;-83
2021/01/15 11:50:04;;;;;;;26.73;18.10;;;;;;;8.22;40.77;99374.41;6817008;29;20221;-83
2021/01/15 11:53:25;;;;;;;13.47;10.70;;;;;;;7.79;41.21;99340.84;6818288;29;20223;-84
2021/01/15 11:56:48;;;;;;;17.07;9.70;;;;;;;8.26;39.75;99365.81;6818487;29;20227;-84
2021/01/15 12:00:11;;;;;;;20.73;13.03;;;;;;;8.04;41.04;99363.06;6817946;29;20217;-84
2021/01/15 12:03:32;;;;;;;12.20;8.93;;;;;;;7.45;41.59;99364.47;6818352;29;20293;-84
2021/01/15 12:06:54;;;;;;;11.33;8.93;;;;;;;8.39;40.86;99362.56;6818472;28;20270;-84
2021/01/15 12:10:15;;;;;;;13.63;10.10;;;;;;;7.30;41.86;99325.13;6816137;29;20674;-83
2021/01/15 12:13:37;;;;;;;13.83;9.10;;;;;;;6.97;41.91;99319.00;6819383;29;20241;-84
2021/01/15 12:16:59;;;;;;;12.20;9.83;;;;;;;8.13;40.64;99335.16;6818054;29;20234;-84
2021/01/15 12:20:20;;;;;;;12.00;10.00;;;;;;;8.46;39.55;99355.47;6815929;29;20235;-84
2021/01/15 12:23:41;;;;;;;11.43;9.13;;;;;;;8.79;39.17;99359.59;6816224;29;20207;-84
2021/01/15 12:27:05;;;;;;;11.00;9.27;;;;;;;8.28;39.81;99360.28;6818162;29;20203;-82
2021/01/15 12:30:27;;;;;;;12.40;8.73;;;;;;;8.53;39.36;99357.25;6816696;29;20215;-83
2021/01/15 12:33:48;;;;;;;13.23;10.53;;;;;;;8.47;39.58;99288.09;6816645;29;20191;-83
2021/01/15 12:37:09;;;;;;;14.90;11.73;;;;;;;8.59;39.71;99359.22;6819941;29;20230;-84
2021/01/15 12:40:31;;;;;;;10.37;9.27;;;;;;;8.92;40.30;99347.22;6817627;29;20209;-83
2021/01/15 12:43:52;;;;;;;10.73;9.23;;;;;;;8.41;39.13;99347.94;6824979;28;20205;-83
2021/01/15 12:47:15;;;;;;;14.73;9.73;;;;;;;8.01;40.41;99361.56;6817754;29;20677;-87
2021/01/15 12:50:36;;;;;;;11.83;9.37;;;;;;;7.48;42.60;99358.75;6794561;29;20234;-83
2021/01/15 12:53:57;;;;;;;13.23;8.70;;;;;;;8.26;41.43;99332.75;6792591;29;20207;-79
2021/01/15 12:57:18;;;;;;;11.83;9.07;;;;;;;8.28;39.93;99312.78;6790454;29;20230;-78
2021/01/15 13:00:39;;;;;;;11.53;9.30;;;;;;;8.00;40.33;99333.03;6791235;29;20287;-80
2021/01/15 13:04:02;;;;;;;13.53;9.20;;;;;;;8.58;40.08;99322.63;6789920;29;20211;-80
2021/01/15 13:07:23;;;;;;;11.53;8.90;;;;;;;8.67;38.98;99342.22;6796520;29;20206;-80
2021/01/15 13:10:46;;;;;;;9.43;7.53;;;;;;;8.07;39.27;99317.06;6816027;29;20319;-80
2021/01/15 13:14:07;;;;;;;8.77;7.87;;;;;;;8.40;40.30;99343.59;6816168;29;20619;-82
2021/01/15 13:17:28;;;;;;;8.23;7.43;;;;;;;8.17;40.78;99345.38;6816187;29;20229;-80
2021/01/15 13:20:50;;;;;;;10.50;7.77;;;;;;;8.29;39.89;99356.56;6815222;29;20735;-80
2021/01/15 13:24:11;;;;;;;8.57;7.53;;;;;;;8.00;40.84;99351.84;6816543;29;20212;-80
2021/01/15 13:27:32;;;;;;;10.70;8.37;;;;;;;8.59;40.33;99366.44;6816207;29;20210;-80
2021/01/15 13:30:54;;;;;;;12.30;8.80;;;;;;;9.20;39.35;99359.03;6818911;29;20604;-81
2021/01/15 13:34:15;;;;;;;9.50;8.50;;;;;;;7.82;40.78;99316.38;6820876;29;20195;-81
2021/01/15 13:37:38;;;;;;;10.53;9.03;;;;;;;8.61;39.92;99370.63;6821118;29;20222;-80
2021/01/15 13:41:00;;;;;;;10.60;9.23;;;;;;;7.77;41.76;99390.38;6826408;29;20279;-83
2021/01/15 13:44:25;;;;;;;12.67;9.23;;;;;;;7.73;42.38;99381.81;6827816;29;20203;-81
2021/01/15 13:47:46;;;;;;;10.33;8.57;;;;;;;8.14;41.50;99398.59;6822456;29;20218;-81
2021/01/15 13:51:14;;;;;;;11.63;9.43;;;;;;;8.50;40.17;99405.16;6823161;29;20226;-82
2021/01/15 13:54:36;;;;;;;10.27;8.77;;;;;;;8.01;40.88;99404.53;6827409;29;20699;-82
2021/01/15 13:57:57;;;;;;;9.87;8.03;;;;;;;7.54;41.91;99418.97;6827242;29;20247;-82
2021/01/15 14:01:18;;;;;;;8.83;7.53;;;;;;;7.80;40.95;99331.81;6826847;29;20232;-83
2021/01/15 14:04:40;;;;;;;10.93;8.97;;;;;;;8.37;40.58;99427.22;6827366;29;20219;-82
2021/01/15 14:08:01;;;;;;;13.20;9.03;;;;;;;7.55;41.89;99404.53;6826057;29;20587;-83
2021/01/15 14:11:23;;;;;;;11.43;8.93;;;;;;;7.48;43.05;99436.56;6823591;29;20220;-81
2021/01/15 14:14:44;;;;;;;14.37;9.90;;;;;;;8.21;42.00;99432.69;6820775;29;20228;-80
2021/01/15 14:18:05;;;;;;;12.87;10.07;;;;;;;7.89;42.17;99410.47;6819811;29;20255;-80
2021/01/15 14:21:27;;;;;;;11.27;9.50;;;;;;;7.91;42.29;99457.59;6819036;29;20235;-81
2021/01/15 14:24:48;;;;;;;13.80;9.70;;;;;;;7.99;42.11;99452.22;6819419;28;20694;-82
2021/01/15 14:28:10;;;;;;;10.93;9.73;;;;;;;7.69;43.90;99434.19;6825163;29;20211;-80
2021/01/15 14:31:36;;;;;;;15.57;10.13;;;;;;;8.01;43.00;99468.16;6820468;29;20266;-84
2021/01/15 14:34:58;;;;;;;12.03;9.67;;;;;;;8.06;43.00;99447.81;6819299;29;20201;-86
2021/01/15 14:38:19;;;;;;;14.67;10.57;;;;;;;7.87;42.63;99456.28;6818473;29;20698;-82
2021/01/15 14:41:42;;;;;;;12.57;9.70;;;;;;;7.10;43.77;99466.78;6819289;29;20250;-85
2021/01/15 14:45:05;;;;;;;13.77;10.40;;;;;;;7.59;43.82;99427.31;6826778;29;20211;-83
2021/01/15 14:48:27;;;;;;;15.47;11.77;;;;;;;7.88;43.80;99478.56;6828051;29;20235;-85
2021/01/15 14:51:48;;;;;;;17.57;10.90;;;;;;;7.64;44.60;99492.03;6828890;29;20250;-85
2021/01/15 14:55:10;;;;;;;14.57;11.40;;;;;;;6.70;46.60;99461.34;6828552;29;20204;-85
2021/01/15 14:58:31;;;;;;;16.47;11.50;;;;;;;7.24;45.52;99500.94;6831399;29;20218;-85
2021/01/15 15:01:54;;;;;;;15.53;12.80;;;;;;;7.15;45.22;99477.00;6835069;29;20245;-84
2021/01/15 15:05:16;;;;;;;15.73;11.27;;;;;;;7.78;44.89;99510.16;6811312;29;20239;-83
2021/01/15 15:08:37;;;;;;;12.33;11.03;;;;;;;7.38;45.65;99496.78;6804953;29;20205;-83
2021/01/15 15:11:58;;;;;;;16.93;13.63;;;;;;;7.16;46.31;99502.78;6818119;29;20224;-83
2021/01/15 15:15:19;;;;;;;14.33;11.00;;;;;;;7.18;45.85;99492.75;6818717;28;20218;-83
2021/01/15 15:18:42;;;;;;;15.43;11.47;;;;;;;7.40;45.83;99514.38;6819078;29;20234;-84
2021/01/15 15:22:03;;;;;;;14.13;11.10;;;;;;;7.18;45.97;99527.63;6818175;29;20234;-84
2021/01/15 15:25:24;;;;;;;18.10;12.03;;;;;;;6.99;46.42;99490.38;6818403;29;20224;-84
2021/01/15 15:28:47;;;;;;;17.83;11.50;;;;;;;7.13;46.21;99532.63;6818938;29;20214;-83
2021/01/15 15:32:08;;;;;;;15.97;11.90;;;;;;;6.74;46.64;99500.22;6817813;29;20257;-81
2021/01/15 15:35:30;;;;;;;14.57;11.40;;;;;;;7.16;46.45;99529.59;6819455;28;20606;-82
2021/01/15 15:38:53;;;;;;;16.83;11.77;;;;;;;7.09;46.21;99525.91;6820275;29;20317;-81
2021/01/15 15:42:14;;;;;;;17.33;12.73;;;;;;;6.99;46.28;99533.25;6799435;29;20233;-81
2021/01/15 15:45:35;;;;;;;16.63;13.10;;;;;;;6.98;46.23;99551.22;6816348;29;20204;-81
2021/01/15 15:48:56;;;;;;;16.97;13.00;;;;;;;6.88;46.24;99553.19;6818674;29;20273;-81
2021/01/15 15:52:18;;;;;;;21.50;12.57;;;;;;;7.07;46.62;99578.88;6819559;28;20236;-81
2021/01/15 15:55:40;;;;;;;16.43;12.03;;;;;;;6.89;46.35;99536.09;6819621;29;20209;-82
2021/01/15 15:59:01;;;;;;;15.70;11.50;;;;;;;6.66;47.01;99535.03;6820390;29;20230;-81
2021/01/15 16:02:22;;;;;;;28.03;19.17;;;;;;;6.56;46.58;99504.88;6810635;29;20232;-81
2021/01/15 16:05:43;;;;;;;26.60;19.23;;;;;;;6.99;46.59;99573.47;6795229;29;20205;-81
2021/01/15 16:09:06;;;;;;;17.20;12.73;;;;;;;6.80;47.41;99582.66;6820647;29;20219;-81
2021/01/15 16:12:27;;;;;;;27.17;17.17;;;;;;;6.66;47.88;99585.13;6821382;29;20242;-81
2021/01/15 16:15:49;;;;;;;17.57;12.43;;;;;;;6.68;47.71;99577.75;6818773;29;20212;-81
2021/01/15 16:19:10;;;;;;;20.80;14.27;;;;;;;6.68;47.85;99593.81;6819451;29;20237;-81
2021/01/15 16:22:31;;;;;;;15.70;10.93;;;;;;;6.37;48.22;99609.56;6819078;29;20222;-80
2021/01/15 16:25:54;;;;;;;13.77;10.97;;;;;;;6.29;48.40;99604.19;6821264;28;20214;-81
2021/01/15 16:29:15;;;;;;;16.10;11.70;;;;;;;6.31;48.98;99618.22;6821735;29;20211;-81
2021/01/15 16:32:38;;;;;;;16.70;12.13;;;;;;;6.56;48.10;99617.38;6818789;29;20328;-81
2021/01/15 16:35:59;;;;;;;17.20;12.13;;;;;;;6.55;48.13;99620.22;6823899;29;20208;-81
2021/01/15 16:39:20;;;;;;;16.20;12.90;;;;;;;6.42;48.83;99630.53;6818104;29;20241;-81
2021/01/15 16:42:44;;;;;;;16.87;12.73;;;;;;;6.72;48.25;99624.66;6811707;29;20447;-81
2021/01/15 16:46:05;;;;;;;20.20;13.33;;;;;;;6.83;48.18;99629.75;6797054;29;20543;-80
2021/01/15 16:49:26;;;;;;;23.87;14.70;;;;;;;6.67;48.77;99643.06;6816700;29;20209;-80
2021/01/15 16:52:47;;;;;;;29.00;17.87;;;;;;;6.41;48.38;99610.09;6836886;28;20232;-81
2021/01/15 16:56:11;;;;;;;17.33;12.60;;;;;;;6.54;48.62;99645.34;6819854;29;20212;-80
2021/01/15 16:59:33;;;;;;;17.17;11.90;;;;;;;6.62;48.42;99637.34;6819630;29;20724;-81
2021/01/15 17:02:55;;;;;;;33.83;21.07;;;;;;;6.93;48.03;99646.50;6818521;29;20234;-82
2021/01/15 17:06:16;;;;;;;15.30;11.53;;;;;;;6.73;48.28;99661.16;6821456;29;20220;-83
2021/01/15 17:09:37;;;;;;;14.43;10.23;;;;;;;6.69;48.23;99641.03;6819662;29;20218;-80
2021/01/15 17:12:59;;;;;;;37.17;17.33;;;;;;;6.76;48.18;99637.56;6819266;29;20235;-81
2021/01/15 17:16:22;;;;;;;17.33;10.67;;;;;;;6.29;49.45;99665.75;6819384;29;20692;-81
2021/01/15 17:19:43;;;;;;;14.83;11.17;;;;;;;7.00;47.52;99652.91;6818800;29;20212;-81
2021/01/15 17:23:05;;;;;;;17.00;11.97;;;;;;;7.23;47.01;99668.25;6822370;29;20231;-81
2021/01/15 17:26:26;;;;;;;60.50;38.90;;;;;;;7.04;47.22;99665.00;6822236;29;20207;-80
2021/01/15 17:29:47;;;;;;;9.10;7.57;;;;;;;6.26;48.27;99641.97;6822725;29;20223;-79
2021/01/15 17:33:09;;;;;;;9.63;7.53;;;;;;;6.45;48.54;99665.88;6818906;29;20260;-80
2021/01/15 17:36:30;;;;;;;31.57;22.30;;;;;;;6.24;47.98;99619.88;6820923;29;20212;-81
2021/01/15 17:39:51;;;;;;;11.83;9.07;;;;;;;6.49;47.77;99645.78;6818410;29;20209;-81
2021/01/15 17:43:13;;;;;;;13.00;9.57;;;;;;;6.49;48.54;99680.63;6804898;29;20253;-81
2021/01/15 17:46:35;;;;;;;8.90;7.87;;;;;;;6.16;49.29;99688.59;6803363;29;20224;-80
2021/01/15 17:49:57;;;;;;;9.87;7.97;;;;;;;6.17;49.11;99683.09;6821946;29;20508;-79
2021/01/15 17:53:21;;;;;;;9.77;8.70;;;;;;;6.30;48.90;99691.53;6816905;29;20243;-82
2021/01/15 17:56:42;;;;;;;24.53;12.93;;;;;;;6.72;47.86;99683.63;6820075;29;20224;-81
2021/01/15 18:00:05;;;;;;;11.57;8.00;;;;;;;6.82;47.92;99695.88;6828590;29;20232;-78
2021/01/15 18:03:26;;;;;;;9.80;8.80;;;;;;;6.60;48.25;99688.38;6821499;29;20225;-79
2021/01/15 18:06:48;;;;;;;12.73;9.57;;;;;;;6.44;47.55;99655.31;6819684;29;20208;-79
2021/01/15 18:10:11;;;;;;;14.37;10.77;;;;;;;6.75;48.18;99710.94;6813404;29;20205;-79
2021/01/15 18:13:32;;;;;;;12.67;9.70;;;;;;;6.74;48.75;99724.47;6812168;29;20288;-79
2021/01/15 18:16:53;;;;;;;17.17;10.47;;;;;;;6.63;48.75;99704.16;6820924;29;20237;-79
2021/01/15 18:20:20;;;;;;;16.87;12.00;;;;;;;6.52;49.19;99722.31;6821237;28;20200;-78
2021/01/15 18:23:42;;;;;;;16.33;12.10;;;;;;;6.71;49.11;99708.75;6817087;29;20201;-79
2021/01/15 18:27:03;;;;;;;11.97;10.43;;;;;;;6.77;49.05;99727.69;6817371;29;20211;-79
2021/01/15 18:30:24;;;;;;;13.23;10.60;;;;;;;6.67;49.79;99734.16;6816507;29;20223;-80
2021/01/15 18:33:45;;;;;;;12.37;9.57;;;;;;;6.52;49.75;99746.44;6816829;29;20216;-79
2021/01/15 18:37:07;;;;;;;9.60;8.17;;;;;;;6.41;49.55;99728.78;6816971;29;20704;-81
2021/01/15 18:40:29;;;;;;;12.17;9.10;;;;;;;6.32;49.31;99739.59;6815359;29;20215;-78
2021/01/15 18:43:53;;;;;;;11.20;8.50;;;;;;;6.15;49.50;99752.03;6817232;29;20227;-82
2021/01/15 18:47:14;;;;;;;14.67;10.90;;;;;;;6.12;50.60;99748.78;6810674;29;20210;-79
2021/01/15 18:50:35;;;;;;;14.07;10.10;;;;;;;6.25;50.22;99755.44;6808893;29;20598;-80
2021/01/15 18:53:56;;;;;;;21.30;13.60;;;;;;;6.28;50.66;99755.13;6815323;29;20578;-79
2021/01/15 18:57:18;;;;;;;12.80;9.73;;;;;;;6.45;50.07;99753.41;6815839;29;20243;-79
2021/01/15 19:00:39;;;;;;;14.70;10.43;;;;;;;6.35;50.28;99753.53;6815108;29;20227;-79
2021/01/15 19:04:00;;;;;;;15.07;10.03;;;;;;;6.49;50.65;99760.16;6815540;29;20245;-79
2021/01/15 19:07:22;;;;;;;12.73;10.37;;;;;;;6.51;50.63;99742.94;6822950;29;20204;-79
2021/01/15 19:10:43;;;;;;;13.87;9.50;;;;;;;6.11;51.11;99742.59;6815442;29;20286;-79
2021/01/15 19:14:05;;;;;;;12.20;9.80;;;;;;;6.23;51.29;99752.09;6818673;29;20275;-79
2021/01/15 19:17:29;;;;;;;13.20;10.07;;;;;;;5.81;51.82;99758.19;6818324;29;20665;-80
2021/01/15 19:20:52;;;;;;;11.30;9.00;;;;;;;5.69;51.60;99729.94;6818732;29;20236;-81
2021/01/15 19:24:13;;;;;;;12.23;8.73;;;;;;;6.06;51.38;99765.47;6808224;29;20241;-79
2021/01/15 19:27:36;;;;;;;12.20;9.13;;;;;;;6.04;51.50;99778.16;6808167;29;20205;-80
2021/01/15 19:30:59;;;;;;;11.43;8.73;;;;;;;5.90;51.57;99763.47;6817478;29;20835;-80
2021/01/15 19:34:21;;;;;;;11.37;9.30;;;;;;;5.96;51.79;99746.81;6817367;29;20213;-79
2021/01/15 19:37:42;;;;;;;11.23;8.47;;;;;;;6.00;51.16;99766.94;6818646;29;20286;-81
2021/01/15 19:41:04;;;;;;;10.77;8.70;;;;;;;5.97;51.67;99756.53;6815355;29;20228;-78
2021/01/15 19:44:25;;;;;;;11.67;9.17;;;;;;;5.83;51.92;99786.50;6815510;29;20256;-79
2021/01/15 19:47:47;;;;;;;11.87;8.80;;;;;;;5.55;51.42;99725.97;6817163;29;20300;-78
2021/01/15 19:51:09;;;;;;;11.00;8.70;;;;;;;5.96;51.39;99773.56;6818134;29;20614;-78
2021/01/15 19:54:46;;;;;;;11.17;9.03;;;;;;;5.52;51.91;99747.66;6818113;29;20209;-79
2021/01/15 19:58:07;;;;;;;11.03;9.23;;;;;;;5.84;51.91;99788.16;6787395;29;20678;-81
2021/01/15 20:01:29;;;;;;;12.83;8.90;;;;;;;5.93;51.38;99748.94;6781403;29;20340;-78
2021/01/15 20:04:51;;;;;;;11.73;8.50;;;;;;;5.73;51.82;99788.34;6785782;29;20206;-80
2021/01/15 20:08:15;;;;;;;10.73;8.80;;;;;;;5.78;51.36;99791.41;6785593;29;20269;-80
2021/01/15 20:11:36;;;;;;;10.67;8.63;;;;;;;5.92;51.55;99790.09;6784659;29;20331;-81
2021/01/15 20:14:58;;;;;;;14.50;9.37;;;;;;;5.98;51.15;99771.59;6785584;29;20396;-79
2021/01/15 20:18:21;;;;;;;14.67;11.00;;;;;;;6.13;52.00;99790.66;6784602;29;20297;-79
2021/01/15 20:21:43;;;;;;;13.20;10.07;;;;;;;6.16;52.21;99793.00;6783963;29;20236;-80
2021/01/15 20:25:06;;;;;;;14.17;10.80;;;;;;;6.31;52.63;99783.44;6784366;29;20216;-80
2021/01/15 20:28:28;;;;;;;14.13;10.67;;;;;;;6.22;52.79;99787.03;6785011;29;20209;-80